Blair, Nebraska
Current Conditions -  °F | °C
As of 6:55 AM on Friday 24 Oct 2014 (Local Time) from KBTA Reporting Station
Haze Haze  
Wind Chill: 58°   Ceiling: Unl
Heat Index: 58°   Visibility: 3mi
Dew Point: 56°   Wind: 10mph
Humidity: 94%   Direction: 180°S
Pressure: 29.93"   Gusts: NA
Location:  41.54°N, 96.13°W
Report Text: KBTA 241155Z AUTO 18009KT 3SM BR CLR 14/13 A2993 RMK AO2 T01430133 10145 20126
Loading
Personal Weather Stations






























Interactive Weather Map
Tropical Storm Tracking
New forecast layout! Learn more

10-Day Weather Forecast

Advertisements
Track Severe Weather on mobile